Stampa

METAR LIMF - Aeroporto di Roma Fiumicino FCO

Roma Fiumicino, Italy (LIRF) 41-48N 012-14E 3M

Apr 21, 2019 - 08:50 PM EDT / 2019.04.22 0050 UTC

Wind: from the E (080 degrees) at 8 MPH (7 KT):0

Visibility: greater than 7 mile(s):0

Temperature: 57 F (14 C)

Dew Point: 44 F (7 C)

Relative Humidity: 62%

Pressure (altimeter): 29.88 in. Hg (1012 hPa)

ob: LIRF 220050Z 08007KT CAVOK 14/07 Q1012 NOSIG

cycle: 1

 Dati METAR in tempo reale | Fonte: NOAA


Ritieni il contenuto di questa pagina incompleto, non attendibile oppure oggetto di altre problematiche? INVIA UNA SEGNALAZIONE Grazie!